createdAt,value
2023-06-03T00:01:42.796Z,25.20
2023-06-03T00:04:15.798Z,17.27
2023-06-03T00:06:48.698Z,21.30
2023-06-03T00:09:20.990Z,17.08
2023-06-03T00:11:53.316Z,19.63
2023-06-03T00:14:25.477Z,18.48
2023-06-03T00:16:57.937Z,20.02
2023-06-03T00:19:30.097Z,18.42
2023-06-03T00:22:03.515Z,17.25
2023-06-03T00:24:36.098Z,21.58
2023-06-03T00:27:08.192Z,20.77
2023-06-03T00:29:40.741Z,19.27
2023-06-03T00:32:12.959Z,23.23
2023-06-03T00:34:45.791Z,13.43
2023-06-03T00:37:18.037Z,20.70
2023-06-03T00:39:50.226Z,19.77
2023-06-03T00:42:22.379Z,20.08
2023-06-03T00:44:54.729Z,16.83
2023-06-03T00:47:28.161Z,17.08
2023-06-03T00:50:00.714Z,16.08
2023-06-03T00:52:34.035Z,22.77
2023-06-03T00:55:06.894Z,17.33
2023-06-03T00:57:39.162Z,17.27
2023-06-03T01:00:12.020Z,18.38
2023-06-03T01:02:45.923Z,22.35
2023-06-03T01:05:18.549Z,26.35
2023-06-03T01:08:02.501Z,24.15
2023-06-03T01:10:59.066Z,19.13
2023-06-03T01:13:56.945Z,24.48
2023-06-03T01:16:32.389Z,23.33
2023-06-03T01:19:16.137Z,19.15
2023-06-03T01:21:50.349Z,23.48
2023-06-03T01:24:22.637Z,19.48
2023-06-03T01:26:54.785Z,19.45
2023-06-03T01:29:27.567Z,18.80
2023-06-03T01:32:01.250Z,22.92
2023-06-03T01:37:07.064Z,23.05
2023-06-03T01:39:43.400Z,15.25
2023-06-03T01:42:15.958Z,15.07
2023-06-03T01:44:48.832Z,20.80
2023-06-03T01:47:21.522Z,19.38
2023-06-03T01:49:54.982Z,23.50
2023-06-03T01:52:27.579Z,19.27
2023-06-03T01:54:59.906Z,16.90
2023-06-03T01:57:32.834Z,18.83
2023-06-03T02:00:08.372Z,23.17
2023-06-03T02:02:47.776Z,17.48
2023-06-03T02:05:21.732Z,27.98
2023-06-03T02:07:53.853Z,18.92
2023-06-03T02:10:26.210Z,20.58
2023-06-03T02:12:58.367Z,21.42
2023-06-03T02:15:31.077Z,19.27
2023-06-03T02:18:04.938Z,18.77
2023-06-03T02:20:37.144Z,23.50
2023-06-03T02:23:11.957Z,21.75
2023-06-03T02:25:44.561Z,18.02
2023-06-03T02:28:18.075Z,17.25
2023-06-03T02:33:22.565Z,23.48
2023-06-03T02:35:55.847Z,23.05
2023-06-03T02:38:28.070Z,20.70
2023-06-03T02:41:00.642Z,20.17
2023-06-03T02:43:33.057Z,16.90
2023-06-03T02:46:05.597Z,17.67
2023-06-03T02:48:38.952Z,15.52
2023-06-03T02:51:11.184Z,21.27
2023-06-03T02:53:44.004Z,21.30
2023-06-03T02:56:16.489Z,27.60
2023-06-03T02:58:48.742Z,22.05
2023-06-03T03:01:21.413Z,26.20
2023-06-03T03:03:54.196Z,22.50
2023-06-03T03:06:26.460Z,22.80
2023-06-03T03:08:58.596Z,21.10
2023-06-03T03:11:41.627Z,22.77
2023-06-03T03:14:15.662Z,21.48
2023-06-03T03:16:48.349Z,20.40
2023-06-03T03:19:20.676Z,20.33
2023-06-03T03:21:53.854Z,20.08
2023-06-03T03:24:32.706Z,24.02
2023-06-03T03:27:05.708Z,23.90
2023-06-03T03:29:45.842Z,20.00
2023-06-03T03:32:21.122Z,25.80
2023-06-03T03:35:12.923Z,19.80
2023-06-03T03:37:46.570Z,28.08
2023-06-03T03:40:22.109Z,24.25
2023-06-03T03:42:59.806Z,19.05
2023-06-03T03:45:37.796Z,20.02
2023-06-03T03:48:15.712Z,22.45
2023-06-03T03:50:53.150Z,23.95
2023-06-03T03:53:35.766Z,25.65
2023-06-03T03:56:21.684Z,21.10
2023-06-03T03:58:59.689Z,22.20
2023-06-03T04:01:41.463Z,18.25
2023-06-03T04:04:43.809Z,19.98
2023-06-03T04:07:21.675Z,18.13
2023-06-03T04:09:54.722Z,19.45
2023-06-03T04:12:31.336Z,21.02
2023-06-03T04:15:06.529Z,17.75
2023-06-03T04:17:42.066Z,19.70
2023-06-03T04:20:42.482Z,20.75
2023-06-03T04:23:18.120Z,20.35
2023-06-03T04:25:51.542Z,19.58
2023-06-03T04:28:24.562Z,19.10
2023-06-03T04:30:57.118Z,24.17
2023-06-03T04:33:29.442Z,21.02
2023-06-03T04:36:01.850Z,18.52
2023-06-03T04:38:34.736Z,22.55
2023-06-03T04:41:07.759Z,21.88
2023-06-03T04:43:41.391Z,30.20
2023-06-03T04:46:15.704Z,22.55
2023-06-03T04:48:49.655Z,34.75
2023-06-03T04:51:24.080Z,17.60
2023-06-03T04:54:00.230Z,21.20
2023-06-03T04:56:32.404Z,21.13
2023-06-03T04:59:07.431Z,19.20
2023-06-03T05:01:50.476Z,19.00
2023-06-03T05:04:30.941Z,21.50
2023-06-03T05:07:07.170Z,21.75
2023-06-03T05:09:40.160Z,23.52
2023-06-03T05:12:13.241Z,23.27
2023-06-03T05:14:48.970Z,19.33
2023-06-03T05:17:23.699Z,17.10
2023-06-03T05:22:28.829Z,16.30
2023-06-03T05:25:01.417Z,14.50
2023-06-03T05:27:34.173Z,16.83
2023-06-03T05:30:07.121Z,18.08
2023-06-03T05:32:43.267Z,15.40
2023-06-03T05:35:15.914Z,23.10
2023-06-03T05:37:48.928Z,21.83
2023-06-03T05:40:22.345Z,22.98
2023-06-03T05:42:57.045Z,16.50
2023-06-03T05:45:31.697Z,18.60
2023-06-03T05:48:04.394Z,20.40
2023-06-03T05:50:38.259Z,22.08
2023-06-03T05:53:11.121Z,18.10
2023-06-03T05:55:44.756Z,15.10
2023-06-03T05:58:21.554Z,14.85
2023-06-03T06:00:54.682Z,14.60
2023-06-03T06:03:27.485Z,20.43
2023-06-03T06:06:02.480Z,18.02
2023-06-03T06:08:35.141Z,19.65
2023-06-03T06:11:09.299Z,16.15
2023-06-03T06:13:42.047Z,15.65
2023-06-03T06:16:15.813Z,17.77
2023-06-03T06:18:48.882Z,19.40
2023-06-03T06:21:21.893Z,19.23
2023-06-03T06:23:54.751Z,15.37
2023-06-03T06:26:28.186Z,17.80
2023-06-03T06:29:03.308Z,15.13
2023-06-03T06:31:36.450Z,19.70
2023-06-03T06:34:11.366Z,16.85
2023-06-03T06:36:51.326Z,19.77
2023-06-03T06:39:37.341Z,18.00
2023-06-03T06:42:24.953Z,15.90
2023-06-03T06:45:11.457Z,14.18
2023-06-03T06:47:44.202Z,16.55
2023-06-03T06:50:36.145Z,19.25
2023-06-03T06:53:09.108Z,20.58
2023-06-03T06:55:55.051Z,22.27
2023-06-03T06:58:40.464Z,16.85
2023-06-03T07:01:15.927Z,17.17
2023-06-03T07:03:55.551Z,17.17
2023-06-03T07:06:28.414Z,19.92
2023-06-03T07:09:07.534Z,16.42
2023-06-03T07:11:47.626Z,14.93
2023-06-03T07:14:23.665Z,17.65
2023-06-03T07:16:56.864Z,15.23
2023-06-03T07:19:40.026Z,19.30
2023-06-03T07:22:16.783Z,19.27
2023-06-03T07:24:49.439Z,15.90
2023-06-03T07:27:29.239Z,17.33
2023-06-03T07:30:04.777Z,20.00
2023-06-03T07:32:39.224Z,15.63
2023-06-03T07:35:14.915Z,16.30
2023-06-03T07:37:48.292Z,15.05
2023-06-03T07:40:21.644Z,16.98
2023-06-03T07:42:54.235Z,21.65
2023-06-03T07:45:27.939Z,20.00
2023-06-03T07:48:02.833Z,14.15
2023-06-03T07:50:35.477Z,14.80
2023-06-03T07:53:08.698Z,17.88
2023-06-03T07:55:46.113Z,17.23
2023-06-03T07:58:19.708Z,17.45
2023-06-03T08:00:55.799Z,16.23
2023-06-03T08:03:28.511Z,16.67
2023-06-03T08:06:02.081Z,12.57
2023-06-03T08:08:35.504Z,17.58
2023-06-03T08:11:09.508Z,15.20
2023-06-03T08:13:42.395Z,17.17
2023-06-03T08:16:16.546Z,15.43
2023-06-03T08:18:51.933Z,16.42
2023-06-03T08:21:32.219Z,19.35
2023-06-03T08:24:04.917Z,11.98
2023-06-03T08:26:37.748Z,17.10
2023-06-03T08:29:10.381Z,14.35
2023-06-03T08:31:43.005Z,15.63
2023-06-03T08:34:15.638Z,13.93
2023-06-03T08:36:48.230Z,13.87
2023-06-03T08:39:20.912Z,16.30
2023-06-03T08:41:55.023Z,17.20
2023-06-03T08:44:38.590Z,15.32
2023-06-03T08:47:15.158Z,17.17
2023-06-03T08:50:08.321Z,12.50
2023-06-03T08:52:41.358Z,10.38
2023-06-03T08:55:14.758Z,15.38
2023-06-03T08:57:50.897Z,12.73
2023-06-03T09:00:25.516Z,12.43
2023-06-03T09:02:59.292Z,9.18
2023-06-03T09:05:34.110Z,14.70
2023-06-03T09:08:07.431Z,12.65
2023-06-03T09:10:40.270Z,14.23
2023-06-03T09:13:14.962Z,10.32
2023-06-03T09:15:48.221Z,16.15
2023-06-03T09:18:20.846Z,12.35
2023-06-03T09:20:53.402Z,13.20
2023-06-03T09:23:28.183Z,13.57
2023-06-03T09:26:00.970Z,11.88
2023-06-03T09:28:35.220Z,19.05
2023-06-03T09:31:09.070Z,13.05
2023-06-03T09:33:42.694Z,12.80
2023-06-03T09:36:19.770Z,13.27
2023-06-03T09:38:53.659Z,13.85
2023-06-03T09:41:27.719Z,13.15
2023-06-03T09:44:03.180Z,10.77
2023-06-03T09:46:36.128Z,10.40
2023-06-03T09:49:33.410Z,11.25
2023-06-03T09:52:14.405Z,12.73
2023-06-03T09:57:20.060Z,11.55
2023-06-03T10:00:05.642Z,13.95
2023-06-03T10:02:44.539Z,17.38
2023-06-03T10:05:30.654Z,15.77
2023-06-03T10:08:05.430Z,11.63
2023-06-03T10:10:54.861Z,11.55
2023-06-03T10:13:28.147Z,15.07
2023-06-03T10:16:02.771Z,10.60
2023-06-03T10:18:37.314Z,13.57
2023-06-03T10:21:11.680Z,14.82
2023-06-03T10:23:44.632Z,12.52
2023-06-03T10:26:18.505Z,12.98
2023-06-03T10:28:51.745Z,12.55
2023-06-03T10:31:25.884Z,10.45
2023-06-03T10:33:59.460Z,9.07
2023-06-03T10:36:32.255Z,8.35
2023-06-03T10:39:10.873Z,15.40
2023-06-03T10:41:43.893Z,13.60
2023-06-03T10:44:17.865Z,10.73
2023-06-03T10:47:00.511Z,15.13
2023-06-03T10:49:34.455Z,8.60
2023-06-03T10:52:30.642Z,12.20
2023-06-03T10:55:11.043Z,10.45
2023-06-03T10:57:48.661Z,10.85
2023-06-03T11:00:39.804Z,7.65
2023-06-03T11:03:17.331Z,9.82
2023-06-03T11:05:50.638Z,9.35
2023-06-03T11:11:42.573Z,11.18
2023-06-03T11:14:31.141Z,8.05
2023-06-03T11:17:04.189Z,9.85
2023-06-03T11:19:45.967Z,12.18
2023-06-03T11:22:30.923Z,13.88
2023-06-03T11:25:03.670Z,11.95
2023-06-03T11:27:36.489Z,8.10
2023-06-03T11:30:09.533Z,13.57
2023-06-03T11:32:41.767Z,8.95
2023-06-03T11:35:32.189Z,13.20
2023-06-03T11:38:05.359Z,12.07
2023-06-03T11:40:45.734Z,8.48
2023-06-03T11:43:19.086Z,8.63
2023-06-03T11:45:51.327Z,10.45
2023-06-03T11:48:37.548Z,12.38
2023-06-03T11:51:10.408Z,11.88
2023-06-03T11:53:42.621Z,14.20
2023-06-03T11:56:16.530Z,9.30
2023-06-03T11:58:56.697Z,10.68
2023-06-03T12:01:28.922Z,15.02
2023-06-03T12:04:02.159Z,9.70
2023-06-03T12:09:07.280Z,9.75
2023-06-03T12:11:41.854Z,9.77
2023-06-03T12:14:31.407Z,7.53
2023-06-03T12:17:12.125Z,9.30
2023-06-03T12:19:56.165Z,8.50
2023-06-03T12:22:28.535Z,10.02
2023-06-03T12:25:00.867Z,10.33
2023-06-03T12:27:33.151Z,8.10
2023-06-03T12:30:07.790Z,10.60
2023-06-03T12:32:59.185Z,9.80
2023-06-03T12:35:31.713Z,12.02
2023-06-03T12:38:08.359Z,14.33
2023-06-03T12:40:41.311Z,12.85
2023-06-03T12:43:20.594Z,10.73
2023-06-03T12:45:54.803Z,12.23
2023-06-03T12:48:32.940Z,11.60
2023-06-03T12:51:24.540Z,10.27
2023-06-03T12:53:58.276Z,10.10
2023-06-03T12:56:30.599Z,8.43
2023-06-03T12:59:05.189Z,17.55
2023-06-03T13:01:37.392Z,9.48
2023-06-03T13:04:09.576Z,11.75
2023-06-03T13:06:43.476Z,12.77
2023-06-03T13:11:48.206Z,10.38
2023-06-03T13:14:20.390Z,9.65
2023-06-03T13:16:52.725Z,8.65
2023-06-03T13:19:24.896Z,17.10
2023-06-03T13:21:57.031Z,9.00
2023-06-03T13:24:29.208Z,10.60
2023-06-03T13:27:02.772Z,11.60
2023-06-03T13:29:35.540Z,9.63
2023-06-03T13:32:08.926Z,14.00
2023-06-03T13:34:41.287Z,15.82
2023-06-03T13:37:14.106Z,12.20
2023-06-03T13:39:46.345Z,10.27
2023-06-03T13:42:18.643Z,9.33
2023-06-03T13:44:51.471Z,11.20
2023-06-03T13:47:23.708Z,14.25
2023-06-03T13:49:57.670Z,10.20
2023-06-03T13:52:30.268Z,7.95
2023-06-03T13:55:02.439Z,8.93
2023-06-03T13:57:34.695Z,12.30
2023-06-03T14:00:08.510Z,12.50
2023-06-03T14:02:41.692Z,10.05
2023-06-03T14:05:13.996Z,11.30
2023-06-03T14:07:46.577Z,16.33
2023-06-03T14:10:18.795Z,15.43
2023-06-03T14:12:51.062Z,11.85
2023-06-03T14:15:24.419Z,10.32
2023-06-03T14:17:56.580Z,7.65
2023-06-03T14:20:30.959Z,15.85
2023-06-03T14:23:03.145Z,7.88
2023-06-03T14:25:35.315Z,11.82
2023-06-03T14:28:07.680Z,8.85
2023-06-03T14:30:57.823Z,15.63
2023-06-03T14:33:30.984Z,13.52
2023-06-03T14:36:03.357Z,12.00
2023-06-03T14:38:35.925Z,8.83
2023-06-03T14:41:10.674Z,13.20
2023-06-03T14:43:42.844Z,6.95
2023-06-03T14:46:16.823Z,14.32
2023-06-03T14:48:50.156Z,7.68
2023-06-03T14:51:23.167Z,9.48
2023-06-03T14:53:55.650Z,9.23
2023-06-03T14:56:28.080Z,7.93
2023-06-03T14:59:01.236Z,12.43
2023-06-03T15:01:33.580Z,11.40
2023-06-03T15:04:05.961Z,9.27
2023-06-03T15:06:39.488Z,11.18
2023-06-03T15:09:11.893Z,9.65
2023-06-03T15:11:44.941Z,9.10
2023-06-03T15:14:17.325Z,14.15
2023-06-03T15:16:49.528Z,12.25
2023-06-03T15:19:22.995Z,11.00
2023-06-03T15:21:55.479Z,12.02
2023-06-03T15:24:27.713Z,9.02
2023-06-03T15:26:59.925Z,8.90
2023-06-03T15:29:32.865Z,10.27
2023-06-03T15:32:05.329Z,8.35
2023-06-03T15:34:37.990Z,7.70
2023-06-03T15:37:10.218Z,10.55
2023-06-03T15:39:42.482Z,12.75
2023-06-03T15:42:15.162Z,9.82
2023-06-03T15:44:47.355Z,10.95
2023-06-03T15:47:20.001Z,10.00
2023-06-03T15:49:52.173Z,8.73
2023-06-03T15:52:25.052Z,8.47
2023-06-03T15:54:57.264Z,12.38
2023-06-03T15:57:29.422Z,9.27
2023-06-03T16:00:02.378Z,14.40
2023-06-03T16:02:37.468Z,8.25
2023-06-03T16:05:09.993Z,8.17
2023-06-03T16:07:42.978Z,9.93
2023-06-03T16:10:16.089Z,13.65
2023-06-03T16:12:48.325Z,16.88
2023-06-03T16:15:21.695Z,9.27
2023-06-03T16:17:53.945Z,9.73
2023-06-03T16:20:26.672Z,9.03
2023-06-03T16:22:58.985Z,10.32
2023-06-03T16:25:31.442Z,7.80
2023-06-03T16:28:03.888Z,13.55
2023-06-03T16:30:36.050Z,13.45
2023-06-03T16:33:08.290Z,10.63
2023-06-03T16:35:40.541Z,11.03
2023-06-03T16:38:13.288Z,10.95
2023-06-03T16:40:45.566Z,10.70
2023-06-03T16:43:17.948Z,9.93
2023-06-03T16:45:51.029Z,7.72
2023-06-03T16:48:23.215Z,9.32
2023-06-03T16:50:55.927Z,10.57
2023-06-03T16:53:28.660Z,11.68
2023-06-03T16:56:01.275Z,10.43
2023-06-03T16:58:33.952Z,12.52
2023-06-03T17:01:07.559Z,9.40
2023-06-03T17:03:43.196Z,10.65
2023-06-03T17:06:16.031Z,12.75
2023-06-03T17:08:49.056Z,12.02
2023-06-03T17:11:21.885Z,9.32
2023-06-03T17:13:54.035Z,13.70
2023-06-03T17:16:26.661Z,13.13
2023-06-03T17:18:59.518Z,9.68
2023-06-03T17:21:31.643Z,9.93
2023-06-03T17:24:04.005Z,8.02
2023-06-03T17:26:36.327Z,11.30
2023-06-03T17:29:08.700Z,10.52
2023-06-03T17:31:41.123Z,8.23
2023-06-03T17:34:13.759Z,8.40
2023-06-03T17:36:46.013Z,9.10
2023-06-03T17:39:19.232Z,10.23
2023-06-03T17:41:52.380Z,9.82
2023-06-03T17:44:24.757Z,9.38
2023-06-03T17:46:57.075Z,11.98
2023-06-03T17:49:29.976Z,11.55
2023-06-03T17:52:02.216Z,12.35
2023-06-03T17:54:34.946Z,9.90
2023-06-03T17:57:08.997Z,11.20
2023-06-03T18:02:16.582Z,13.30
2023-06-03T18:04:48.956Z,8.27
2023-06-03T18:07:21.748Z,14.38
2023-06-03T18:09:53.915Z,11.43
2023-06-03T18:12:26.138Z,8.32
2023-06-03T18:14:58.467Z,18.70
2023-06-03T18:17:31.287Z,21.50
2023-06-03T18:20:03.959Z,28.80
2023-06-03T18:22:36.231Z,19.43
2023-06-03T18:25:08.960Z,9.00
2023-06-03T18:27:41.153Z,8.75
2023-06-03T18:30:14.564Z,9.30
2023-06-03T18:35:19.456Z,13.82
2023-06-03T18:37:51.776Z,11.85
2023-06-03T18:40:24.127Z,14.73
2023-06-03T18:42:57.264Z,9.13
2023-06-03T18:45:29.411Z,8.85
2023-06-03T18:48:01.758Z,10.10
2023-06-03T18:50:34.158Z,12.95
2023-06-03T18:53:07.304Z,17.02
2023-06-03T18:55:39.662Z,10.88
2023-06-03T18:58:14.783Z,10.48
2023-06-03T19:00:47.237Z,11.27
2023-06-03T19:03:27.636Z,8.95
2023-06-03T19:06:01.136Z,10.50
2023-06-03T19:08:33.325Z,9.20
2023-06-03T19:11:05.513Z,10.60
2023-06-03T19:13:38.128Z,12.83
2023-06-03T19:16:10.548Z,11.15
2023-06-03T19:18:42.953Z,12.82
2023-06-03T19:21:15.182Z,12.20
2023-06-03T19:23:47.610Z,12.18
2023-06-03T19:26:19.786Z,11.20
2023-06-03T19:28:53.487Z,12.07
2023-06-03T19:31:28.372Z,12.88
2023-06-03T19:34:01.257Z,13.68
2023-06-03T19:36:33.401Z,11.13
2023-06-03T19:39:06.511Z,11.88
2023-06-03T19:41:38.912Z,11.27
2023-06-03T19:44:11.094Z,12.80
2023-06-03T19:46:43.615Z,14.50
2023-06-03T19:49:15.994Z,16.10
2023-06-03T19:51:48.177Z,14.85
2023-06-03T19:54:20.393Z,12.95
2023-06-03T19:56:54.026Z,12.77
2023-06-03T19:59:26.233Z,11.65
2023-06-03T20:01:58.432Z,11.18
2023-06-03T20:04:31.936Z,11.07
2023-06-03T20:07:04.245Z,10.80
2023-06-03T20:09:37.767Z,10.60
2023-06-03T20:14:42.073Z,13.15
2023-06-03T20:17:14.248Z,11.02
2023-06-03T20:19:47.050Z,12.52
2023-06-03T20:22:20.888Z,18.30
2023-06-03T20:24:55.145Z,12.13
2023-06-03T20:27:27.541Z,11.95
2023-06-03T20:29:59.691Z,14.95
2023-06-03T20:32:31.914Z,11.30
2023-06-03T20:35:05.270Z,11.60
2023-06-03T20:40:10.658Z,10.77
2023-06-03T20:42:43.591Z,14.15
2023-06-03T20:45:17.836Z,13.43
2023-06-03T20:47:50.614Z,14.25
2023-06-03T20:50:23.355Z,12.60
2023-06-03T20:52:55.507Z,10.68
2023-06-03T20:55:27.667Z,15.35
2023-06-03T20:58:02.144Z,10.77
2023-06-03T21:00:34.523Z,13.15
2023-06-03T21:03:06.963Z,13.55
2023-06-03T21:05:39.144Z,9.55
2023-06-03T21:08:11.687Z,14.27
2023-06-03T21:10:43.867Z,13.25
2023-06-03T21:13:17.001Z,11.43
2023-06-03T21:15:49.637Z,15.32
2023-06-03T21:18:22.132Z,14.38
2023-06-03T21:20:55.485Z,13.00
2023-06-03T21:23:27.967Z,13.80
2023-06-03T21:26:02.261Z,10.90
2023-06-03T21:28:34.715Z,11.90
2023-06-03T21:31:07.228Z,11.65
2023-06-03T21:33:39.569Z,13.63
2023-06-03T21:36:12.001Z,15.25
2023-06-03T21:38:44.192Z,16.02
2023-06-03T21:41:16.368Z,12.70
2023-06-03T21:43:50.303Z,12.00
2023-06-03T21:46:23.507Z,15.65
2023-06-03T21:48:55.851Z,11.32
2023-06-03T21:51:28.142Z,14.05
2023-06-03T21:54:00.675Z,17.70
2023-06-03T21:56:33.533Z,11.07
2023-06-03T21:59:05.864Z,16.50
2023-06-03T22:01:38.610Z,13.80
2023-06-03T22:04:10.838Z,14.70
2023-06-03T22:06:43.012Z,13.82
2023-06-03T22:09:15.388Z,12.93
2023-06-03T22:11:47.628Z,14.23
2023-06-03T22:14:20.034Z,12.32
2023-06-03T22:16:52.358Z,12.02
2023-06-03T22:19:24.579Z,13.07
2023-06-03T22:21:56.727Z,16.42
2023-06-03T22:24:28.913Z,13.50
2023-06-03T22:27:01.493Z,14.70
2023-06-03T22:29:33.610Z,14.40
2023-06-03T22:32:06.442Z,13.48
2023-06-03T22:34:38.562Z,16.73
2023-06-03T22:37:10.666Z,15.20
2023-06-03T22:39:42.798Z,12.85
2023-06-03T22:42:14.944Z,17.85
2023-06-03T22:44:47.598Z,14.90
2023-06-03T22:47:19.731Z,13.50
2023-06-03T22:49:52.121Z,16.02
2023-06-03T22:52:24.259Z,14.25
2023-06-03T22:54:57.588Z,14.40
2023-06-03T22:57:29.734Z,16.92
2023-06-03T23:00:02.064Z,13.10
2023-06-03T23:02:35.273Z,13.30
2023-06-03T23:05:07.631Z,13.70
2023-06-03T23:07:40.552Z,23.80
2023-06-03T23:10:12.943Z,18.02
2023-06-03T23:12:46.196Z,18.02
2023-06-03T23:15:18.407Z,15.65
2023-06-03T23:17:51.196Z,13.73
2023-06-03T23:20:28.492Z,14.75
2023-06-03T23:23:00.764Z,15.73
2023-06-03T23:25:32.952Z,15.50
2023-06-03T23:28:05.159Z,17.88
2023-06-03T23:30:37.457Z,13.98
2023-06-03T23:33:10.311Z,17.33
2023-06-03T23:35:42.622Z,18.80
2023-06-03T23:38:16.312Z,13.02
2023-06-03T23:43:21.055Z,14.63
2023-06-03T23:45:53.339Z,12.95
2023-06-03T23:48:26.011Z,15.88
2023-06-03T23:50:58.177Z,17.15
2023-06-03T23:53:30.913Z,15.63
2023-06-03T23:56:03.066Z,13.50
2023-06-03T23:58:35.200Z,15.57
